Time;durP1;ratioP1;P1;durP2;ratioP2;P2;SDS_P1;SDS_P2;PMS_P1;PMS_P2;Temp;Humidity;BMP_temperature;BMP_pressure;BME280_temperature;BME280_humidity;BME280_pressure;Samples;Min_cycle;Max_cycle;Signal;HPM_P1;HPM_P2
2021/11/04 00:02:03;;;;;;;1.90;1.50;;;8.40;99.90;;;;;;5052096;28;20950;-70
2021/11/04 00:04:29;;;;;;;0.80;0.73;;;8.40;99.90;;;;;;5052044;28;20552;-70
2021/11/04 00:06:55;;;;;;;4.07;2.10;;;8.40;99.90;;;;;;5050440;28;20207;-69
2021/11/04 00:09:20;;;;;;;3.03;1.43;;;8.40;99.90;;;;;;5051880;28;20594;-69
2021/11/04 00:11:46;;;;;;;1.23;1.17;;;8.40;99.90;;;;;;5051704;28;20421;-69
2021/11/04 00:14:12;;;;;;;9.47;2.67;;;8.40;99.90;;;;;;5050853;28;20171;-69
2021/11/04 00:16:37;;;;;;;1.53;1.43;;;8.40;99.90;;;;;;5051799;28;20429;-69
2021/11/04 00:19:03;;;;;;;1.93;1.80;;;8.40;99.90;;;;;;5052024;28;20175;-70
2021/11/04 00:21:29;;;;;;;1.23;1.00;;;8.30;99.90;;;;;;5051231;28;20258;-70
2021/11/04 00:23:54;;;;;;;1.57;1.47;;;8.30;99.90;;;;;;5051892;28;20186;-70
2021/11/04 00:26:20;;;;;;;0.70;0.60;;;8.30;99.90;;;;;;5050325;28;20213;-70
2021/11/04 00:28:46;;;;;;;2.33;2.13;;;8.40;99.90;;;;;;5050648;28;20694;-70
2021/11/04 00:31:12;;;;;;;0.90;0.87;;;8.40;99.90;;;;;;5052057;28;20433;-70
2021/11/04 00:33:38;;;;;;;6.60;1.93;;;8.40;99.90;;;;;;5051704;28;20171;-70
2021/11/04 00:36:04;;;;;;;4.63;1.00;;;8.30;99.90;;;;;;5050995;28;20417;-70
2021/11/04 00:38:29;;;;;;;1.50;1.40;;;8.30;99.90;;;;;;5050416;28;20448;-70
2021/11/04 00:40:55;;;;;;;2.87;1.97;;;8.30;99.90;;;;;;5051514;28;20178;-70
2021/11/04 00:43:21;;;;;;;1.00;0.70;;;8.30;99.90;;;;;;5051714;28;20547;-70
2021/11/04 00:45:47;;;;;;;3.50;1.73;;;8.30;99.90;;;;;;5051142;28;20179;-70
2021/11/04 00:48:13;;;;;;;1.97;1.23;;;8.10;99.90;;;;;;5051543;28;20456;-70
2021/11/04 00:50:38;;;;;;;1.67;1.47;;;8.10;99.90;;;;;;5051377;28;20178;-70
2021/11/04 00:53:04;;;;;;;2.30;1.30;;;8.10;99.90;;;;;;5051344;28;20171;-70
2021/11/04 00:55:30;;;;;;;2.10;1.30;;;8.00;99.90;;;;;;5051072;28;20179;-71
2021/11/04 00:57:55;;;;;;;0.70;0.50;;;8.00;99.90;;;;;;5051232;28;20293;-70
2021/11/04 01:00:21;;;;;;;12.20;1.20;;;8.00;99.90;;;;;;5051374;28;20175;-70
2021/11/04 01:02:47;;;;;;;0.90;0.80;;;7.90;99.90;;;;;;5051093;28;20189;-70
2021/11/04 01:05:12;;;;;;;1.60;1.50;;;8.00;99.90;;;;;;5052091;28;20170;-70
2021/11/04 01:07:38;;;;;;;1.30;1.20;;;8.00;99.90;;;;;;5055452;28;20534;-70
2021/11/04 01:10:05;;;;;;;1.67;1.57;;;8.00;99.90;;;;;;5055042;28;20697;-70
2021/11/04 01:12:31;;;;;;;3.87;1.23;;;7.90;99.90;;;;;;5052948;28;20184;-70
2021/11/04 01:14:57;;;;;;;4.97;3.10;;;7.90;99.90;;;;;;5055136;28;20914;-70
2021/11/04 01:17:22;;;;;;;3.23;2.73;;;7.90;99.90;;;;;;5055074;28;20281;-70
2021/11/04 01:19:48;;;;;;;1.30;1.20;;;8.00;99.90;;;;;;5055273;28;20179;-70
2021/11/04 01:22:14;;;;;;;0.70;0.50;;;7.90;99.90;;;;;;5054844;28;20240;-70
2021/11/04 01:24:39;;;;;;;2.93;2.00;;;7.90;99.90;;;;;;5054881;28;20182;-70
2021/11/04 01:27:05;;;;;;;1.20;0.90;;;7.90;99.90;;;;;;5054751;28;20195;-70
2021/11/04 01:29:31;;;;;;;2.13;2.03;;;8.00;99.90;;;;;;5054752;28;20179;-72
2021/11/04 01:31:56;;;;;;;0.80;0.77;;;8.00;99.90;;;;;;5053108;28;20167;-70
2021/11/04 01:34:22;;;;;;;1.30;1.20;;;7.90;99.90;;;;;;5055048;28;20626;-70
2021/11/04 01:36:47;;;;;;;1.67;1.57;;;8.00;99.90;;;;;;5054293;28;20199;-70
2021/11/04 01:39:13;;;;;;;0.97;0.97;;;8.10;99.90;;;;;;5054970;28;20190;-70
2021/11/04 01:41:39;;;;;;;6.10;2.60;;;8.20;99.90;;;;;;5054957;28;20178;-70
2021/11/04 01:44:05;;;;;;;1.63;1.53;;;8.10;99.90;;;;;;5053248;28;20171;-70
2021/11/04 01:46:31;;;;;;;0.70;0.60;;;8.20;99.90;;;;;;5053285;28;20459;-70
2021/11/04 01:48:57;;;;;;;2.33;1.93;;;8.20;99.90;;;;;;5054667;28;20177;-70
2021/11/04 01:51:23;;;;;;;9.97;4.10;;;8.10;99.90;;;;;;5054438;28;20178;-70
2021/11/04 01:53:49;;;;;;;7.80;3.10;;;8.10;99.90;;;;;;5054542;28;20425;-70
2021/11/04 01:56:14;;;;;;;1.10;0.90;;;8.10;99.90;;;;;;5056122;28;20258;-70
2021/11/04 01:58:40;;;;;;;1.60;1.50;;;8.20;99.90;;;;;;5041820;28;20241;-70
2021/11/04 02:01:05;;;;;;;2.23;2.03;;;8.10;99.90;;;;;;5052927;28;20175;-70
2021/11/04 02:03:43;;;;;;;2.73;1.53;;;8.20;99.90;;;;;;5053338;28;20181;-70
2021/11/04 02:06:29;;;;;;;3.50;1.50;;;8.20;99.90;;;;;;5052905;28;20167;-69
2021/11/04 02:09:13;;;;;;;0.90;0.90;;;8.20;99.90;;;;;;5052943;28;20421;-69
2021/11/04 02:11:58;;;;;;;9.80;4.20;;;8.10;99.90;;;;;;5056839;28;20414;-71
2021/11/04 02:14:36;;;;;;;2.17;2.00;;;8.10;99.90;;;;;;5058805;28;20500;-69
2021/11/04 02:17:02;;;;;;;1.53;1.43;;;8.20;99.90;;;;;;5056721;28;20957;-70
2021/11/04 02:19:39;;;;;;;4.20;2.40;;;8.10;99.90;;;;;;5057011;28;20422;-70
2021/11/04 02:22:10;;;;;;;2.20;2.10;;;8.10;99.90;;;;;;5056094;28;20512;-70
2021/11/04 02:25:13;;;;;;;2.00;1.57;;;8.10;99.90;;;;;;5058684;28;20500;-70
2021/11/04 02:27:42;;;;;;;1.93;1.80;;;8.00;99.90;;;;;;5057913;28;20460;-70
2021/11/04 02:30:09;;;;;;;1.43;1.33;;;8.00;99.90;;;;;;5056509;28;20409;-70
2021/11/04 02:32:36;;;;;;;0.90;0.90;;;8.00;99.90;;;;;;5057096;28;20460;-71
2021/11/04 02:35:02;;;;;;;2.93;2.77;;;8.00;99.90;;;;;;5057894;28;21112;-71
2021/11/04 02:37:30;;;;;;;6.93;6.30;;;8.00;99.90;;;;;;5057678;28;20429;-69
2021/11/04 02:39:56;;;;;;;2.10;1.90;;;8.00;99.90;;;;;;5054412;28;20453;-69
2021/11/04 02:42:22;;;;;;;3.70;1.83;;;8.00;99.90;;;;;;5051324;28;20782;-69
2021/11/04 02:44:48;;;;;;;1.47;1.20;;;7.90;99.90;;;;;;5052281;28;20421;-70
2021/11/04 02:47:14;;;;;;;6.60;3.23;;;8.00;99.90;;;;;;5052330;28;20202;-70
2021/11/04 02:49:41;;;;;;;0.70;0.70;;;7.90;99.90;;;;;;5052699;28;20417;-70
2021/11/04 02:52:07;;;;;;;2.50;2.40;;;8.00;99.90;;;;;;5051956;28;20421;-70
2021/11/04 02:54:33;;;;;;;5.50;2.90;;;8.00;99.90;;;;;;5052706;28;20463;-69
2021/11/04 02:56:59;;;;;;;1.00;0.70;;;8.00;99.90;;;;;;5013640;28;1117156;-69
2021/11/04 02:59:26;;;;;;;3.20;1.93;;;8.00;99.90;;;;;;5053561;28;20178;-70
2021/11/04 03:01:58;;;;;;;9.17;1.90;;;7.90;99.90;;;;;;5052301;28;20261;-69
2021/11/04 03:04:24;;;;;;;3.87;1.73;;;7.90;99.90;;;;;;5052877;28;20428;-70
2021/11/04 03:06:50;;;;;;;2.50;2.10;;;8.00;99.90;;;;;;5052730;28;20469;-70
2021/11/04 03:09:17;;;;;;;1.57;1.47;;;7.90;99.90;;;;;;5051999;28;20175;-70
2021/11/04 03:11:43;;;;;;;4.50;2.90;;;7.90;99.90;;;;;;5052995;28;20170;-70
2021/11/04 03:14:09;;;;;;;2.53;1.33;;;7.90;99.90;;;;;;5053153;28;20560;-70
2021/11/04 03:16:44;;;;;;;3.53;2.00;;;7.90;99.90;;;;;;5052680;28;20462;-70
2021/11/04 03:19:13;;;;;;;5.40;0.90;;;7.80;99.90;;;;;;5055451;28;20413;-70
2021/11/04 03:21:45;;;;;;;3.40;0.77;;;7.80;99.90;;;;;;5056502;28;20491;-69
2021/11/04 03:24:12;;;;;;;2.80;2.60;;;7.80;99.90;;;;;;5057893;28;20926;-69
2021/11/04 03:26:42;;;;;;;2.80;1.70;;;7.80;99.90;;;;;;5055275;28;20453;-70
2021/11/04 03:29:09;;;;;;;1.70;1.60;;;7.80;99.90;;;;;;5049305;28;20451;-69
2021/11/04 03:31:36;;;;;;;0.90;0.60;;;7.80;99.90;;;;;;5039996;28;20417;-70
2021/11/04 03:34:04;;;;;;;0.70;0.60;;;7.80;99.90;;;;;;5048649;28;20468;-70
2021/11/04 03:36:31;;;;;;;5.33;2.00;;;7.70;99.90;;;;;;5051321;28;20425;-69
2021/11/04 03:38:56;;;;;;;1.43;1.33;;;7.70;99.90;;;;;;5052615;28;20786;-70
2021/11/04 03:41:23;;;;;;;0.97;0.97;;;7.70;99.90;;;;;;5051360;28;20421;-70
2021/11/04 03:43:49;;;;;;;1.00;1.00;;;7.60;99.90;;;;;;5052573;28;20827;-69
2021/11/04 03:46:16;;;;;;;21.97;1.63;;;7.70;99.90;;;;;;5050657;28;20773;-69
2021/11/04 03:48:43;;;;;;;2.13;1.93;;;7.70;99.90;;;;;;5051182;28;20439;-70
2021/11/04 03:51:10;;;;;;;0.90;0.90;;;7.70;99.90;;;;;;5052213;28;20424;-70
2021/11/04 03:53:37;;;;;;;3.30;2.20;;;7.70;99.90;;;;;;5052504;28;20504;-70
2021/11/04 03:56:04;;;;;;;2.17;0.67;;;7.70;99.90;;;;;;5051742;28;20492;-70
2021/11/04 03:58:31;;;;;;;3.37;1.80;;;7.70;99.90;;;;;;5051126;28;20679;-70
2021/11/04 04:00:57;;;;;;;0.70;0.50;;;7.70;99.90;;;;;;5051737;28;21073;-70
2021/11/04 04:03:23;;;;;;;2.70;2.40;;;7.70;99.90;;;;;;5053800;28;20520;-70
2021/11/04 04:06:03;;;;;;;1.47;0.73;;;7.70;99.90;;;;;;5056604;28;20253;-70
2021/11/04 04:08:31;;;;;;;2.20;2.10;;;7.70;99.90;;;;;;5056716;28;20556;-69
2021/11/04 04:10:57;;;;;;;6.83;1.47;;;7.80;99.90;;;;;;5055634;28;20421;-70
2021/11/04 04:13:23;;;;;;;2.03;1.20;;;7.60;99.90;;;;;;5053416;28;20417;-69
2021/11/04 04:15:48;;;;;;;12.33;3.70;;;7.70;99.90;;;;;;5051569;28;20456;-69
2021/11/04 04:18:14;;;;;;;1.43;1.33;;;7.70;99.90;;;;;;5051968;28;20195;-69
2021/11/04 04:20:40;;;;;;;2.47;2.33;;;7.70;99.90;;;;;;5051125;28;20259;-69
2021/11/04 04:23:06;;;;;;;1.87;1.67;;;7.70;99.90;;;;;;5051190;28;20202;-70
2021/11/04 04:25:31;;;;;;;0.70;0.70;;;7.70;99.90;;;;;;5050440;28;20253;-69
2021/11/04 04:27:58;;;;;;;1.90;1.73;;;7.70;99.90;;;;;;5051491;28;20539;-69
2021/11/04 04:30:24;;;;;;;0.70;0.50;;;7.80;99.90;;;;;;5051775;28;20221;-69
2021/11/04 04:32:49;;;;;;;2.47;1.03;;;7.70;99.90;;;;;;5051479;28;20813;-69
2021/11/04 04:35:15;;;;;;;1.13;0.90;;;7.70;99.90;;;;;;5052695;28;20189;-69
2021/11/04 04:37:41;;;;;;;1.37;1.17;;;7.70;99.90;;;;;;5055231;28;20581;-69
2021/11/04 04:40:07;;;;;;;2.50;2.30;;;7.70;99.90;;;;;;5056754;28;20254;-70
2021/11/04 04:42:33;;;;;;;4.43;1.90;;;7.70;99.90;;;;;;5057856;28;20171;-69
2021/11/04 04:44:59;;;;;;;4.57;1.87;;;7.80;99.90;;;;;;5056025;28;20420;-70
2021/11/04 04:47:24;;;;;;;0.70;0.60;;;7.80;99.90;;;;;;5056628;28;20248;-70
2021/11/04 04:49:50;;;;;;;6.10;1.33;;;7.80;99.90;;;;;;5056119;28;20181;-70
2021/11/04 04:52:16;;;;;;;3.33;3.03;;;7.90;99.90;;;;;;5055745;28;20167;-69
2021/11/04 04:54:41;;;;;;;0.70;0.60;;;7.80;99.90;;;;;;5052248;28;20202;-70
2021/11/04 04:57:07;;;;;;;1.87;1.60;;;7.80;99.90;;;;;;5051110;28;20210;-70
2021/11/04 04:59:33;;;;;;;2.03;1.83;;;7.80;99.90;;;;;;5051655;28;20183;-70
2021/11/04 05:01:59;;;;;;;6.97;2.57;;;7.80;99.90;;;;;;5051068;28;20539;-70
2021/11/04 05:04:24;;;;;;;0.70;0.50;;;7.80;99.90;;;;;;5051594;28;20422;-70
2021/11/04 05:06:50;;;;;;;0.70;0.60;;;7.80;99.90;;;;;;5049650;28;20461;-70
2021/11/04 05:09:15;;;;;;;0.73;0.73;;;7.80;99.90;;;;;;5051635;28;20163;-70
2021/11/04 05:11:41;;;;;;;7.50;3.23;;;7.80;99.90;;;;;;5049749;28;20178;-70
2021/11/04 05:14:07;;;;;;;2.50;2.40;;;7.70;99.90;;;;;;5051004;28;20167;-70
2021/11/04 05:16:32;;;;;;;4.70;0.83;;;7.80;99.90;;;;;;5051086;28;20179;-70
2021/11/04 05:18:58;;;;;;;2.43;2.33;;;7.80;99.90;;;;;;5051175;28;20652;-69
2021/11/04 05:21:24;;;;;;;2.10;1.47;;;7.80;99.90;;;;;;5049553;28;20672;-70
2021/11/04 05:23:49;;;;;;;3.57;3.27;;;7.80;99.90;;;;;;5050063;28;20661;-69
2021/11/04 05:26:15;;;;;;;0.70;0.70;;;7.80;99.90;;;;;;5051018;28;20200;-70
2021/11/04 05:28:41;;;;;;;2.90;2.70;;;7.70;99.90;;;;;;5050918;28;20195;-69
2021/11/04 05:31:06;;;;;;;1.63;1.53;;;7.70;99.90;;;;;;5056672;28;20175;-69
2021/11/04 05:33:32;;;;;;;0.80;0.80;;;7.70;99.90;;;;;;5053087;28;20436;-70
2021/11/04 05:35:57;;;;;;;2.43;2.20;;;7.70;99.90;;;;;;5055614;28;20579;-70
2021/11/04 05:38:23;;;;;;;3.73;3.50;;;7.70;99.90;;;;;;5056620;28;20206;-70
2021/11/04 05:40:49;;;;;;;4.53;1.27;;;7.60;99.90;;;;;;5056283;28;20175;-70
2021/11/04 05:43:14;;;;;;;0.70;0.63;;;7.60;99.90;;;;;;5051213;28;20259;-69
2021/11/04 05:45:40;;;;;;;2.70;1.47;;;7.60;99.90;;;;;;5050772;28;20246;-69
2021/11/04 05:48:05;;;;;;;9.20;3.00;;;7.50;99.90;;;;;;5050933;28;20273;-69
2021/11/04 05:50:31;;;;;;;4.03;3.03;;;7.50;99.90;;;;;;5051754;28;20171;-69
2021/11/04 05:52:56;;;;;;;2.30;2.17;;;7.60;99.90;;;;;;5053193;28;20171;-70
2021/11/04 05:55:22;;;;;;;1.17;1.07;;;7.50;99.90;;;;;;5054277;28;20171;-69
2021/11/04 05:57:47;;;;;;;0.70;0.60;;;7.50;99.90;;;;;;5053189;28;20556;-70
2021/11/04 06:00:13;;;;;;;6.27;2.87;;;7.60;99.90;;;;;;5054798;28;20641;-70
2021/11/04 06:02:39;;;;;;;2.60;2.40;;;7.50;99.90;;;;;;5061119;28;20297;-69
2021/11/04 06:05:05;;;;;;;0.90;0.90;;;7.50;99.90;;;;;;5059963;28;20449;-70
2021/11/04 06:07:30;;;;;;;3.47;1.50;;;7.50;99.90;;;;;;5055425;28;20238;-70
2021/11/04 06:09:56;;;;;;;0.97;0.97;;;7.40;99.90;;;;;;5054084;28;20718;-70
2021/11/04 06:12:22;;;;;;;0.80;0.80;;;7.30;99.90;;;;;;5054534;28;20706;-70
2021/11/04 06:14:47;;;;;;;2.07;1.20;;;7.30;99.90;;;;;;5053895;28;20167;-70
2021/11/04 06:17:13;;;;;;;2.80;2.30;;;7.30;99.90;;;;;;5053862;28;20913;-70
2021/11/04 06:19:39;;;;;;;0.70;0.50;;;7.30;99.90;;;;;;5053979;28;20570;-70
2021/11/04 06:22:04;;;;;;;3.40;2.50;;;7.30;99.90;;;;;;5053865;28;20171;-70
2021/11/04 06:24:30;;;;;;;0.80;0.80;;;7.30;99.90;;;;;;5052887;28;20183;-70
2021/11/04 06:26:55;;;;;;;1.70;1.60;;;7.40;99.90;;;;;;5053479;28;20704;-70
2021/11/04 06:29:21;;;;;;;1.20;0.77;;;7.40;99.90;;;;;;5053755;28;20182;-71
2021/11/04 06:31:47;;;;;;;1.00;0.87;;;7.30;99.90;;;;;;5045984;28;20171;-71
2021/11/04 06:34:12;;;;;;;21.93;3.03;;;7.30;99.90;;;;;;5061694;28;20620;-71
2021/11/04 06:36:38;;;;;;;1.43;0.80;;;7.20;99.90;;;;;;5056662;28;20183;-70
2021/11/04 06:39:04;;;;;;;0.70;0.60;;;7.20;99.90;;;;;;5053491;28;20178;-70
2021/11/04 06:41:29;;;;;;;2.80;2.67;;;7.30;99.90;;;;;;5053659;28;20183;-70
2021/11/04 06:43:55;;;;;;;1.77;1.23;;;7.20;99.90;;;;;;5053514;28;20175;-70
2021/11/04 06:46:24;;;;;;;1.23;1.13;;;7.20;99.90;;;;;;5053176;28;20190;-71
2021/11/04 06:49:01;;;;;;;2.77;1.17;;;7.20;99.90;;;;;;5058316;28;20506;-71
2021/11/04 06:51:29;;;;;;;1.07;1.00;;;7.10;99.90;;;;;;5073084;28;20427;-69
2021/11/04 06:53:56;;;;;;;1.47;1.37;;;7.20;99.90;;;;;;5054959;28;20413;-70
2021/11/04 06:56:23;;;;;;;1.90;1.80;;;7.10;99.90;;;;;;5053273;28;20495;-70
2021/11/04 06:58:50;;;;;;;0.70;0.50;;;7.10;99.90;;;;;;5059826;28;20515;-70
2021/11/04 07:01:18;;;;;;;0.73;0.73;;;7.10;99.90;;;;;;5051248;28;20428;-70
2021/11/04 07:04:10;;;;;;;1.00;0.70;;;7.10;99.90;;;;;;5058143;28;20425;-70
2021/11/04 07:06:44;;;;;;;2.87;2.77;;;7.00;99.90;;;;;;5062573;28;20460;-70
2021/11/04 07:09:10;;;;;;;3.03;2.80;;;7.00;99.90;;;;;;5060909;28;20435;-71
2021/11/04 07:11:36;;;;;;;0.70;0.53;;;7.00;99.90;;;;;;5062543;28;20418;-70
2021/11/04 07:14:02;;;;;;;0.90;0.90;;;7.00;99.90;;;;;;5061925;28;20171;-70
2021/11/04 07:16:29;;;;;;;0.80;0.80;;;7.00;99.90;;;;;;5057099;28;20417;-70
2021/11/04 07:18:56;;;;;;;1.60;1.50;;;7.00;99.90;;;;;;5052860;28;20976;-70
2021/11/04 07:21:49;;;;;;;1.23;0.80;;;7.00;99.90;;;;;;5052608;28;20423;-70
2021/11/04 07:24:26;;;;;;;2.50;2.40;;;7.00;99.90;;;;;;5053588;28;20917;-71
2021/11/04 07:26:54;;;;;;;1.07;0.93;;;7.00;99.90;;;;;;5053448;28;20539;-71
2021/11/04 07:29:30;;;;;;;1.77;1.00;;;7.00;99.90;;;;;;5053416;28;20422;-71
2021/11/04 07:31:55;;;;;;;2.20;1.70;;;7.00;99.90;;;;;;5051331;28;20512;-71
2021/11/04 07:34:24;;;;;;;1.63;1.53;;;7.10;99.90;;;;;;5051732;28;21022;-71
2021/11/04 07:36:51;;;;;;;1.50;1.43;;;7.10;99.90;;;;;;5059211;28;20441;-69
2021/11/04 07:39:17;;;;;;;4.13;1.07;;;7.10;99.90;;;;;;5058398;28;20418;-70
2021/11/04 07:41:43;;;;;;;1.33;1.00;;;7.10;99.90;;;;;;5058644;28;20508;-71
2021/11/04 07:44:08;;;;;;;1.20;1.10;;;7.10;99.90;;;;;;5053636;28;20171;-70
2021/11/04 07:46:34;;;;;;;0.80;0.70;;;7.30;99.90;;;;;;5052173;28;20207;-71
2021/11/04 07:49:00;;;;;;;0.70;0.70;;;7.40;99.90;;;;;;5052393;28;20182;-72
2021/11/04 07:51:25;;;;;;;4.43;1.70;;;7.50;99.90;;;;;;5052021;28;20189;-71
2021/11/04 07:53:51;;;;;;;1.63;1.53;;;7.50;99.90;;;;;;5052256;28;20417;-71
2021/11/04 07:56:17;;;;;;;0.70;0.50;;;7.60;99.90;;;;;;5052030;28;20317;-71
2021/11/04 07:58:43;;;;;;;0.70;0.50;;;7.70;99.90;;;;;;5057747;28;20236;-71
2021/11/04 08:01:08;;;;;;;1.57;1.00;;;7.70;99.90;;;;;;5057753;28;20297;-71
2021/11/04 08:03:34;;;;;;;0.90;0.67;;;7.80;99.90;;;;;;5057730;28;20183;-71
2021/11/04 08:06:00;;;;;;;1.07;1.07;;;7.80;99.90;;;;;;5056928;28;20182;-72
2021/11/04 08:08:25;;;;;;;1.33;1.23;;;7.90;99.90;;;;;;5056391;28;20207;-72
2021/11/04 08:10:52;;;;;;;2.93;2.73;;;7.90;99.90;;;;;;5056592;28;20185;-72
2021/11/04 08:13:19;;;;;;;0.80;0.70;;;8.10;99.90;;;;;;5055078;28;20171;-72
2021/11/04 08:15:44;;;;;;;0.70;0.60;;;8.10;99.90;;;;;;5056384;28;20417;-71
2021/11/04 08:18:10;;;;;;;1.87;1.77;;;8.30;99.90;;;;;;5054638;28;20477;-72
2021/11/04 08:20:37;;;;;;;1.77;1.13;;;8.40;99.90;;;;;;5054273;28;20198;-73
2021/11/04 08:23:14;;;;;;;0.70;0.50;;;8.60;99.90;;;;;;5051398;28;20426;-72
2021/11/04 08:25:42;;;;;;;2.77;1.00;;;8.80;99.90;;;;;;5050596;28;20824;-73
2021/11/04 08:28:08;;;;;;;0.97;0.90;;;8.90;99.90;;;;;;5056406;28;20464;-72
2021/11/04 08:30:34;;;;;;;2.20;1.43;;;9.00;99.90;;;;;;5056187;28;20422;-71
2021/11/04 08:33:00;;;;;;;1.93;1.20;;;9.00;99.90;;;;;;5057276;28;20922;-72
2021/11/04 08:35:25;;;;;;;0.80;0.73;;;9.00;99.90;;;;;;5055597;28;20513;-71
2021/11/04 08:37:52;;;;;;;2.70;2.30;;;9.10;99.90;;;;;;5057444;28;20278;-72
2021/11/04 08:40:17;;;;;;;1.50;1.40;;;9.10;99.90;;;;;;5057583;28;20182;-72
2021/11/04 08:42:43;;;;;;;1.57;1.40;;;9.20;99.90;;;;;;5056002;28;20421;-72
2021/11/04 08:45:09;;;;;;;14.70;4.40;;;9.30;99.90;;;;;;5057595;28;20230;-73
2021/11/04 08:47:36;;;;;;;1.33;1.23;;;9.30;99.90;;;;;;5056388;28;20203;-72
2021/11/04 08:50:04;;;;;;;2.97;1.63;;;9.30;99.90;;;;;;5056678;28;20414;-71
2021/11/04 08:52:30;;;;;;;6.30;1.63;;;9.40;99.90;;;;;;5055695;28;20417;-72
2021/11/04 08:54:56;;;;;;;18.40;3.47;;;9.50;99.90;;;;;;5055689;28;20502;-72
2021/11/04 08:57:22;;;;;;;2.30;1.77;;;9.50;99.90;;;;;;5056181;28;20206;-72
2021/11/04 08:59:48;;;;;;;1.47;1.37;;;9.60;99.90;;;;;;5056402;28;20179;-71
2021/11/04 09:02:18;;;;;;;1.60;1.50;;;9.70;99.90;;;;;;5055559;28;20952;-71
2021/11/04 09:04:45;;;;;;;10.63;2.50;;;9.70;99.90;;;;;;5056563;28;20474;-72
2021/11/04 09:07:20;;;;;;;2.23;1.97;;;9.90;99.90;;;;;;5054345;28;20457;-72
2021/11/04 09:09:49;;;;;;;1.17;1.07;;;10.00;99.90;;;;;;5054268;28;20566;-72
2021/11/04 09:12:15;;;;;;;0.90;0.90;;;10.10;99.90;;;;;;5052670;28;20409;-72
2021/11/04 09:14:42;;;;;;;4.10;3.90;;;10.20;99.90;;;;;;5052144;28;20425;-72
2021/11/04 09:17:08;;;;;;;1.53;1.43;;;10.30;99.90;;;;;;5052360;28;20429;-71
2021/11/04 09:19:34;;;;;;;3.27;2.43;;;10.30;99.90;;;;;;5055259;28;20414;-71
2021/11/04 09:22:00;;;;;;;3.07;2.30;;;10.40;99.90;;;;;;5054128;28;20519;-72
2021/11/04 09:24:27;;;;;;;6.20;3.53;;;10.60;99.90;;;;;;5054704;28;20174;-72
2021/11/04 09:26:54;;;;;;;1.33;1.23;;;10.70;99.90;;;;;;5058911;28;20199;-72
2021/11/04 09:29:20;;;;;;;1.87;1.77;;;10.70;99.90;;;;;;5057828;28;20789;-73
2021/11/04 09:31:45;;;;;;;3.37;3.10;;;10.80;99.90;;;;;;5058626;28;20508;-73
2021/11/04 09:34:11;;;;;;;4.30;3.87;;;10.90;99.90;;;;;;5059693;28;20167;-72
2021/11/04 09:36:36;;;;;;;4.83;3.03;;;11.00;99.90;;;;;;5060182;28;20701;-71
2021/11/04 09:39:03;;;;;;;1.50;1.30;;;11.20;99.90;;;;;;5060657;28;20185;-72
2021/11/04 09:41:30;;;;;;;12.20;2.20;;;11.40;99.90;;;;;;5066588;28;20186;-72
2021/11/04 09:43:57;;;;;;;2.17;1.67;;;11.80;99.90;;;;;;5059323;28;20436;-72
2021/11/04 09:46:24;;;;;;;3.50;3.20;;;12.00;99.90;;;;;;5058102;28;20417;-71
2021/11/04 09:48:51;;;;;;;7.43;2.63;;;12.20;99.90;;;;;;5059914;28;20459;-72
2021/11/04 09:51:16;;;;;;;12.70;4.60;;;12.50;99.90;;;;;;5058823;28;20990;-73
2021/11/04 09:53:43;;;;;;;4.83;3.40;;;12.50;99.90;;;;;;5059628;28;20447;-72
2021/11/04 09:56:08;;;;;;;4.17;3.73;;;12.60;99.90;;;;;;5052635;28;20202;-72
2021/11/04 09:58:34;;;;;;;3.57;3.13;;;12.60;99.90;;;;;;5059807;28;20440;-73
2021/11/04 10:01:25;;;;;;;3.20;2.73;;;12.50;99.90;;;;;;5059730;28;20260;-72
2021/11/04 10:03:53;;;;;;;5.53;4.20;;;12.40;99.90;;;;;;5061626;28;20175;-72
2021/11/04 10:06:23;;;;;;;13.00;2.97;;;12.10;99.90;;;;;;5062467;28;20420;-72
2021/11/04 10:08:53;;;;;;;7.20;2.70;;;12.00;99.90;;;;;;5061570;28;20422;-71
2021/11/04 10:11:21;;;;;;;1.10;1.00;;;11.80;99.90;;;;;;5061586;28;20433;-72
2021/11/04 10:13:49;;;;;;;1.83;1.73;;;11.60;99.90;;;;;;5061582;28;20409;-73
2021/11/04 10:16:17;;;;;;;2.30;2.10;;;11.30;99.90;;;;;;5060514;28;20436;-72
2021/11/04 10:18:51;;;;;;;1.67;1.33;;;11.20;99.90;;;;;;5061055;28;20425;-72
2021/11/04 10:21:23;;;;;;;9.20;3.20;;;11.20;99.90;;;;;;5060950;28;20447;-72
2021/11/04 10:23:49;;;;;;;3.63;3.43;;;11.20;99.90;;;;;;5061833;28;20417;-72
2021/11/04 10:26:19;;;;;;;15.87;1.97;;;11.20;99.90;;;;;;5059684;28;21035;-73
2021/11/04 10:28:47;;;;;;;2.27;2.10;;;11.00;99.90;;;;;;5062854;28;20498;-72
2021/11/04 10:31:15;;;;;;;1.63;1.53;;;11.00;99.90;;;;;;5060719;28;20409;-72
2021/11/04 10:33:44;;;;;;;3.17;2.60;;;10.90;99.90;;;;;;5061143;28;20421;-72
2021/11/04 10:36:21;;;;;;;3.37;1.40;;;10.90;99.90;;;;;;5062245;28;20453;-72
2021/11/04 10:38:57;;;;;;;2.40;1.40;;;10.90;99.90;;;;;;5061429;28;20429;-72
2021/11/04 10:41:40;;;;;;;4.90;2.00;;;10.90;99.90;;;;;;5059591;28;20416;-72
2021/11/04 10:44:09;;;;;;;3.53;1.97;;;10.80;99.90;;;;;;5062062;28;20421;-72
2021/11/04 10:46:57;;;;;;;3.53;3.33;;;10.60;99.90;;;;;;5060506;28;20420;-71
2021/11/04 10:49:24;;;;;;;2.97;2.87;;;10.60;99.90;;;;;;5061417;28;20413;-72
2021/11/04 10:51:58;;;;;;;2.10;1.63;;;10.50;99.90;;;;;;5060434;28;20516;-72
2021/11/04 10:54:24;;;;;;;2.07;1.23;;;10.60;99.90;;;;;;5061961;28;20411;-72
2021/11/04 10:56:52;;;;;;;4.77;1.80;;;10.70;99.90;;;;;;5060339;28;20472;-73
2021/11/04 10:59:20;;;;;;;1.37;1.10;;;11.10;99.90;;;;;;5061437;28;20425;-72
2021/11/04 11:01:47;;;;;;;3.60;3.40;;;11.30;99.90;;;;;;5060482;28;20789;-72
2021/11/04 11:04:20;;;;;;;1.90;1.80;;;11.30;99.90;;;;;;5060465;28;20468;-71
2021/11/04 11:06:47;;;;;;;1.63;1.17;;;11.40;99.90;;;;;;5059449;28;20464;-72
2021/11/04 11:09:24;;;;;;;5.27;2.97;;;11.30;99.90;;;;;;5059155;28;20421;-72
2021/11/04 11:11:53;;;;;;;2.17;1.87;;;11.20;99.90;;;;;;5061189;28;20516;-72
2021/11/04 11:14:21;;;;;;;1.43;1.33;;;11.10;99.90;;;;;;5062995;28;20425;-72
2021/11/04 11:16:51;;;;;;;3.70;1.27;;;10.90;99.90;;;;;;5062396;28;20461;-70
2021/11/04 11:19:22;;;;;;;3.23;2.20;;;10.70;99.90;;;;;;5061753;28;20430;-72
2021/11/04 11:21:51;;;;;;;3.30;2.93;;;10.60;99.90;;;;;;5061454;28;20432;-71
2021/11/04 11:24:21;;;;;;;1.20;0.80;;;10.60;99.90;;;;;;5059508;28;20500;-71
2021/11/04 11:26:47;;;;;;;3.13;2.40;;;10.60;99.90;;;;;;5060771;28;20456;-72
2021/11/04 11:29:13;;;;;;;5.57;2.30;;;10.40;99.90;;;;;;5058637;28;20429;-72
2021/11/04 11:31:50;;;;;;;3.17;2.87;;;10.50;99.90;;;;;;5058787;28;20418;-72
2021/11/04 11:34:16;;;;;;;2.13;1.17;;;10.50;99.90;;;;;;5059600;28;20791;-72
2021/11/04 11:37:16;;;;;;;2.07;1.97;;;10.50;99.90;;;;;;5061094;28;20481;-72
2021/11/04 11:40:04;;;;;;;3.03;2.73;;;10.60;99.90;;;;;;5060218;28;20421;-73
2021/11/04 11:42:30;;;;;;;2.13;2.03;;;10.60;99.90;;;;;;5061191;28;20785;-72
2021/11/04 11:45:02;;;;;;;1.03;1.03;;;10.70;99.90;;;;;;5061913;28;20413;-71
2021/11/04 11:47:39;;;;;;;2.50;2.40;;;10.80;99.90;;;;;;5061408;28;20476;-73
2021/11/04 11:50:20;;;;;;;1.83;1.73;;;10.90;99.90;;;;;;5061848;28;20484;-72
2021/11/04 11:52:54;;;;;;;1.13;0.90;;;10.90;99.90;;;;;;5059931;28;20414;-72
2021/11/04 11:55:42;;;;;;;1.83;1.73;;;11.20;99.90;;;;;;5062233;28;20919;-72
2021/11/04 11:58:15;;;;;;;3.43;2.03;;;11.60;99.90;;;;;;5060913;28;20474;-73
2021/11/04 12:00:54;;;;;;;2.97;2.77;;;12.10;99.90;;;;;;5061027;28;20492;-72
2021/11/04 12:03:31;;;;;;;7.73;2.70;;;12.60;99.90;;;;;;5061506;28;20829;-73
2021/11/04 12:05:58;;;;;;;5.40;3.57;;;13.10;99.90;;;;;;5068545;28;21013;-72
2021/11/04 12:08:26;;;;;;;3.13;1.50;;;13.50;99.90;;;;;;5061889;28;20484;-72
2021/11/04 12:10:52;;;;;;;1.40;1.13;;;13.60;99.90;;;;;;5061527;28;20433;-72
2021/11/04 12:13:38;;;;;;;4.67;1.63;;;14.30;99.90;;;;;;5059809;28;20444;-72
2021/11/04 12:16:22;;;;;;;19.67;3.70;;;15.30;99.90;;;;;;5060546;28;20182;-72
2021/11/04 12:18:53;;;;;;;2.50;1.20;;;16.80;99.90;;;;;;5061935;28;20448;-72
2021/11/04 12:21:21;;;;;;;3.30;2.83;;;17.50;99.90;;;;;;5057778;28;20410;-72
2021/11/04 12:23:46;;;;;;;4.80;2.47;;;18.50;99.90;;;;;;5061818;28;20532;-72
2021/11/04 12:26:14;;;;;;;4.83;3.10;;;18.40;99.90;;;;;;5057672;28;20459;-72
2021/11/04 12:28:47;;;;;;;7.57;2.87;;;17.70;99.90;;;;;;5059393;28;20259;-72
2021/11/04 12:31:21;;;;;;;5.10;2.70;;;17.30;99.90;;;;;;5058301;28;20413;-73
2021/11/04 12:33:49;;;;;;;2.70;2.50;;;17.00;99.90;;;;;;5059456;28;20508;-72
2021/11/04 12:36:41;;;;;;;4.97;2.47;;;16.30;99.90;;;;;;5057372;28;20412;-72
2021/11/04 12:39:19;;;;;;;2.73;2.30;;;17.40;99.90;;;;;;5058596;28;20428;-73
2021/11/04 12:41:50;;;;;;;3.03;1.70;;;18.30;99.90;;;;;;5057745;28;20443;-72
2021/11/04 12:44:34;;;;;;;2.77;2.60;;;18.40;99.90;;;;;;5057930;28;20436;-72
2021/11/04 12:47:06;;;;;;;4.73;3.60;;;18.30;99.90;;;;;;5058950;28;20459;-73
2021/11/04 12:49:34;;;;;;;5.10;2.93;;;18.20;99.90;;;;;;5046492;28;20420;-73
2021/11/04 12:52:02;;;;;;;7.93;2.80;;;18.30;99.90;;;;;;5057893;28;20473;-72
2021/11/04 12:54:33;;;;;;;4.60;2.70;;;17.90;99.90;;;;;;5058845;28;20420;-73
2021/11/04 12:57:02;;;;;;;3.73;1.93;;;17.40;99.90;;;;;;5058060;28;20468;-72
2021/11/04 12:59:48;;;;;;;2.87;2.00;;;16.30;99.90;;;;;;5060797;28;20786;-73